sensor_id;sensor_type;location;lat;lon;timestamp;pressure;altitude;pressure_sealevel;temperature;humidity
54306;BME280;66145;45.188;5.712;2023-02-28T00:00:17;99320.72;;;18.92;36.56
54306;BME280;66145;45.188;5.712;2023-02-28T00:02:43;99268.00;;;18.63;36.37
54306;BME280;66145;45.188;5.712;2023-02-28T00:05:11;99324.16;;;18.97;36.36
54306;BME280;66145;45.188;5.712;2023-02-28T00:07:37;99318.31;;;18.90;36.33
54306;BME280;66145;45.188;5.712;2023-02-28T00:10:07;99317.47;;;18.90;36.50
54306;BME280;66145;45.188;5.712;2023-02-28T00:12:34;99300.19;;;18.80;36.36
54306;BME280;66145;45.188;5.712;2023-02-28T00:15:00;99301.31;;;18.79;36.21
54306;BME280;66145;45.188;5.712;2023-02-28T00:17:25;99320.13;;;18.95;36.38
54306;BME280;66145;45.188;5.712;2023-02-28T00:19:51;99330.16;;;18.99;36.41
54306;BME280;66145;45.188;5.712;2023-02-28T00:22:18;99319.59;;;18.93;36.28
54306;BME280;66145;45.188;5.712;2023-02-28T00:24:44;99324.28;;;18.92;36.26
54306;BME280;66145;45.188;5.712;2023-02-28T00:27:10;99325.28;;;18.96;36.19
54306;BME280;66145;45.188;5.712;2023-02-28T00:29:36;99293.59;;;18.81;36.18
54306;BME280;66145;45.188;5.712;2023-02-28T00:32:02;99293.09;;;18.79;36.27
54306;BME280;66145;45.188;5.712;2023-02-28T00:34:28;99288.56;;;18.75;36.15
54306;BME280;66145;45.188;5.712;2023-02-28T00:36:53;99306.97;;;18.83;35.88
54306;BME280;66145;45.188;5.712;2023-02-28T00:39:19;99326.13;;;18.97;36.11
54306;BME280;66145;45.188;5.712;2023-02-28T00:41:44;99284.19;;;18.74;35.88
54306;BME280;66145;45.188;5.712;2023-02-28T00:44:10;99294.88;;;18.84;36.13
54306;BME280;66145;45.188;5.712;2023-02-28T00:46:35;99306.44;;;18.95;36.13
54306;BME280;66145;45.188;5.712;2023-02-28T00:49:00;99320.84;;;19.09;36.27
54306;BME280;66145;45.188;5.712;2023-02-28T00:51:26;99238.81;;;18.59;36.45
54306;BME280;66145;45.188;5.712;2023-02-28T00:53:51;99312.34;;;19.20;36.25
54306;BME280;66145;45.188;5.712;2023-02-28T00:56:17;99314.16;;;19.24;36.25
54306;BME280;66145;45.188;5.712;2023-02-28T00:58:42;99320.44;;;19.25;36.30
54306;BME280;66145;45.188;5.712;2023-02-28T01:01:07;99323.06;;;19.30;36.43
54306;BME280;66145;45.188;5.712;2023-02-28T01:03:33;99309.63;;;19.28;36.23
54306;BME280;66145;45.188;5.712;2023-02-28T01:05:58;99305.16;;;19.33;36.56
54306;BME280;66145;45.188;5.712;2023-02-28T01:08:24;99298.50;;;19.25;36.42
54306;BME280;66145;45.188;5.712;2023-02-28T01:10:51;99326.78;;;19.43;36.69
54306;BME280;66145;45.188;5.712;2023-02-28T01:13:16;99322.75;;;19.40;36.61
54306;BME280;66145;45.188;5.712;2023-02-28T01:15:45;99317.75;;;19.34;36.76
54306;BME280;66145;45.188;5.712;2023-02-28T01:18:13;99332.75;;;19.36;36.68
54306;BME280;66145;45.188;5.712;2023-02-28T01:20:39;99316.06;;;19.24;36.78
54306;BME280;66145;45.188;5.712;2023-02-28T01:23:04;99322.75;;;19.40;36.82
54306;BME280;66145;45.188;5.712;2023-02-28T01:25:30;99296.72;;;19.20;36.81
54306;BME280;66145;45.188;5.712;2023-02-28T01:27:55;99310.75;;;19.27;36.98
54306;BME280;66145;45.188;5.712;2023-02-28T01:30:20;99317.09;;;19.37;36.66
54306;BME280;66145;45.188;5.712;2023-02-28T01:32:46;99321.63;;;19.41;36.46
54306;BME280;66145;45.188;5.712;2023-02-28T01:35:11;99287.38;;;19.21;36.90
54306;BME280;66145;45.188;5.712;2023-02-28T01:37:37;99308.25;;;19.40;36.57
54306;BME280;66145;45.188;5.712;2023-02-28T01:40:03;99236.09;;;18.90;36.74
54306;BME280;66145;45.188;5.712;2023-02-28T01:42:28;99321.63;;;19.41;36.80
54306;BME280;66145;45.188;5.712;2023-02-28T01:47:24;99318.72;;;19.38;36.89
54306;BME280;66145;45.188;5.712;2023-02-28T01:49:51;99306.28;;;19.32;36.89
54306;BME280;66145;45.188;5.712;2023-02-28T01:52:17;99303.53;;;19.32;36.88
54306;BME280;66145;45.188;5.712;2023-02-28T01:54:51;99326.50;;;19.44;36.83
54306;BME280;66145;45.188;5.712;2023-02-28T01:57:23;99290.09;;;19.21;36.91
54306;BME280;66145;45.188;5.712;2023-02-28T01:59:57;99292.06;;;19.29;36.94
54306;BME280;66145;45.188;5.712;2023-02-28T02:02:26;99318.09;;;19.41;36.98
54306;BME280;66145;45.188;5.712;2023-02-28T02:04:59;99290.78;;;19.27;36.86
54306;BME280;66145;45.188;5.712;2023-02-28T02:07:30;99310.03;;;19.44;36.84
54306;BME280;66145;45.188;5.712;2023-02-28T02:10:10;99298.38;;;19.30;36.84
54306;BME280;66145;45.188;5.712;2023-02-28T02:12:56;99327.47;;;19.49;37.01
54306;BME280;66145;45.188;5.712;2023-02-28T02:21:04;99231.31;;;18.96;37.05
54306;BME280;66145;45.188;5.712;2023-02-28T02:34:44;99325.22;;;19.51;36.94
54306;BME280;66145;45.188;5.712;2023-02-28T02:42:21;99279.66;;;19.32;37.08
54306;BME280;66145;45.188;5.712;2023-02-28T02:44:55;99274.97;;;19.33;37.07
54306;BME280;66145;45.188;5.712;2023-02-28T02:47:26;99289.19;;;19.35;37.27
54306;BME280;66145;45.188;5.712;2023-02-28T02:49:56;99290.34;;;19.42;37.37
54306;BME280;66145;45.188;5.712;2023-02-28T02:52:32;99303.25;;;19.51;37.23
54306;BME280;66145;45.188;5.712;2023-02-28T02:55:00;99297.97;;;19.54;37.30
54306;BME280;66145;45.188;5.712;2023-02-28T02:57:35;99267.25;;;19.35;37.33
54306;BME280;66145;45.188;5.712;2023-02-28T03:00:04;99296.66;;;19.52;37.52
54306;BME280;66145;45.188;5.712;2023-02-28T03:02:34;99254.97;;;19.23;37.24
54306;BME280;66145;45.188;5.712;2023-02-28T03:05:06;99273.38;;;19.40;37.20
54306;BME280;66145;45.188;5.712;2023-02-28T03:07:33;99298.75;;;19.55;37.23
54306;BME280;66145;45.188;5.712;2023-02-28T03:09:58;99276.75;;;19.37;37.44
54306;BME280;66145;45.188;5.712;2023-02-28T03:12:37;99288.88;;;19.45;37.27
54306;BME280;66145;45.188;5.712;2023-02-28T03:15:32;99316.22;;;19.59;37.31
54306;BME280;66145;45.188;5.712;2023-02-28T03:18:08;99283.72;;;19.43;37.17
54306;BME280;66145;45.188;5.712;2023-02-28T03:20:48;99283.09;;;19.47;37.31
54306;BME280;66145;45.188;5.712;2023-02-28T03:26:04;99306.53;;;19.61;37.21
54306;BME280;66145;45.188;5.712;2023-02-28T03:28:40;99238.13;;;19.07;37.09
54306;BME280;66145;45.188;5.712;2023-02-28T03:31:19;99302.34;;;19.55;37.42
54306;BME280;66145;45.188;5.712;2023-02-28T03:33:51;99307.66;;;19.60;37.14
54306;BME280;66145;45.188;5.712;2023-02-28T03:36:28;99285.84;;;19.47;37.26
54306;BME280;66145;45.188;5.712;2023-02-28T03:38:58;99318.97;;;19.59;37.38
54306;BME280;66145;45.188;5.712;2023-02-28T03:41:35;99291.50;;;19.50;37.24
54306;BME280;66145;45.188;5.712;2023-02-28T03:44:09;99272.59;;;19.40;37.25
54306;BME280;66145;45.188;5.712;2023-02-28T03:46:44;99307.50;;;19.66;37.53
54306;BME280;66145;45.188;5.712;2023-02-28T03:49:20;99298.63;;;19.60;37.05
54306;BME280;66145;45.188;5.712;2023-02-28T03:51:50;99306.69;;;19.56;37.30
54306;BME280;66145;45.188;5.712;2023-02-28T03:54:21;99303.00;;;19.61;37.26
54306;BME280;66145;45.188;5.712;2023-02-28T03:56:55;99302.78;;;19.57;37.25
54306;BME280;66145;45.188;5.712;2023-02-28T04:01:52;99290.22;;;19.48;37.19
54306;BME280;66145;45.188;5.712;2023-02-28T04:04:18;99317.69;;;19.65;36.96
54306;BME280;66145;45.188;5.712;2023-02-28T04:06:44;99302.78;;;19.57;37.32
54306;BME280;66145;45.188;5.712;2023-02-28T04:09:12;99310.72;;;19.59;37.12
54306;BME280;66145;45.188;5.712;2023-02-28T04:11:50;99317.69;;;19.65;37.18
54306;BME280;66145;45.188;5.712;2023-02-28T04:14:17;99313.78;;;19.57;37.07
54306;BME280;66145;45.188;5.712;2023-02-28T04:16:43;99331.56;;;19.69;37.08
54306;BME280;66145;45.188;5.712;2023-02-28T04:19:10;99329.97;;;19.68;37.22
54306;BME280;66145;45.188;5.712;2023-02-28T04:21:39;99325.72;;;19.61;37.39
54306;BME280;66145;45.188;5.712;2023-02-28T04:24:06;99300.19;;;19.43;37.27
54306;BME280;66145;45.188;5.712;2023-02-28T04:26:33;99341.72;;;19.68;37.22
54306;BME280;66145;45.188;5.712;2023-02-28T04:29:00;99340.78;;;19.64;37.17
54306;BME280;66145;45.188;5.712;2023-02-28T04:31:26;99319.09;;;19.54;37.31
54306;BME280;66145;45.188;5.712;2023-02-28T04:33:51;99340.44;;;19.66;37.16
54306;BME280;66145;45.188;5.712;2023-02-28T04:36:17;99336.06;;;19.65;37.42
54306;BME280;66145;45.188;5.712;2023-02-28T04:38:43;99325.22;;;19.51;37.39
54306;BME280;66145;45.188;5.712;2023-02-28T04:41:09;99339.16;;;19.63;37.40
54306;BME280;66145;45.188;5.712;2023-02-28T04:43:35;99333.63;;;19.54;37.37
54306;BME280;66145;45.188;5.712;2023-02-28T04:46:02;99343.81;;;19.63;37.47
54306;BME280;66145;45.188;5.712;2023-02-28T04:48:29;99345.75;;;19.62;37.34
54306;BME280;66145;45.188;5.712;2023-02-28T04:50:55;99352.22;;;19.66;37.30
54306;BME280;66145;45.188;5.712;2023-02-28T04:53:20;99278.50;;;19.24;37.30
54306;BME280;66145;45.188;5.712;2023-02-28T04:55:46;99329.91;;;19.50;37.43
54306;BME280;66145;45.188;5.712;2023-02-28T04:58:15;99342.53;;;19.60;37.48
54306;BME280;66145;45.188;5.712;2023-02-28T05:00:41;99353.53;;;19.69;37.51
54306;BME280;66145;45.188;5.712;2023-02-28T05:03:06;99312.13;;;19.39;37.22
54306;BME280;66145;45.188;5.712;2023-02-28T05:05:32;99341.66;;;19.51;37.51
54306;BME280;66145;45.188;5.712;2023-02-28T05:07:57;99341.03;;;19.54;37.27
54306;BME280;66145;45.188;5.712;2023-02-28T05:10:22;99342.16;;;19.53;37.49
54306;BME280;66145;45.188;5.712;2023-02-28T05:12:48;99325.03;;;19.47;37.60
54306;BME280;66145;45.188;5.712;2023-02-28T05:15:15;99363.69;;;19.68;37.52
54306;BME280;66145;45.188;5.712;2023-02-28T05:17:41;99358.66;;;19.61;37.84
54306;BME280;66145;45.188;5.712;2023-02-28T05:20:07;99338.94;;;19.51;37.57
54306;BME280;66145;45.188;5.712;2023-02-28T05:22:36;99378.41;;;19.72;37.43
54306;BME280;66145;45.188;5.712;2023-02-28T05:25:03;99346.69;;;19.57;37.72
54306;BME280;66145;45.188;5.712;2023-02-28T05:27:28;99332.66;;;19.50;37.47
54306;BME280;66145;45.188;5.712;2023-02-28T05:29:54;99365.31;;;19.69;37.64
54306;BME280;66145;45.188;5.712;2023-02-28T05:32:19;99370.50;;;19.71;37.26
54306;BME280;66145;45.188;5.712;2023-02-28T05:34:44;99367.41;;;19.72;37.39
54306;BME280;66145;45.188;5.712;2023-02-28T05:37:14;99350.44;;;19.61;37.59
54306;BME280;66145;45.188;5.712;2023-02-28T05:39:41;99354.81;;;19.71;37.60
54306;BME280;66145;45.188;5.712;2023-02-28T05:42:07;99336.88;;;19.56;37.35
54306;BME280;66145;45.188;5.712;2023-02-28T05:44:32;99362.91;;;19.76;37.31
54306;BME280;66145;45.188;5.712;2023-02-28T05:46:58;99353.03;;;19.67;37.42
54306;BME280;66145;45.188;5.712;2023-02-28T05:49:23;99360.97;;;19.77;37.46
54306;BME280;66145;45.188;5.712;2023-02-28T05:51:48;99359.34;;;19.76;37.37
54306;BME280;66145;45.188;5.712;2023-02-28T05:54:14;99284.47;;;19.26;37.23
54306;BME280;66145;45.188;5.712;2023-02-28T05:56:39;99356.78;;;19.71;37.18
54306;BME280;66145;45.188;5.712;2023-02-28T05:59:06;99356.56;;;19.67;37.46
54306;BME280;66145;45.188;5.712;2023-02-28T06:01:35;99348.03;;;19.69;37.49
54306;BME280;66145;45.188;5.712;2023-02-28T06:04:01;99363.53;;;19.73;37.41
54306;BME280;66145;45.188;5.712;2023-02-28T06:06:28;99370.31;;;19.76;37.61
54306;BME280;66145;45.188;5.712;2023-02-28T06:08:54;99351.41;;;19.66;37.58
54306;BME280;66145;45.188;5.712;2023-02-28T06:11:20;99371.44;;;19.75;37.21
54306;BME280;66145;45.188;5.712;2023-02-28T06:13:46;99370.50;;;19.71;37.33
54306;BME280;66145;45.188;5.712;2023-02-28T06:16:11;99381.78;;;19.78;37.33
54306;BME280;66145;45.188;5.712;2023-02-28T06:18:37;99367.25;;;19.69;37.36
54306;BME280;66145;45.188;5.712;2023-02-28T06:21:02;99368.84;;;19.61;37.31
54306;BME280;66145;45.188;5.712;2023-02-28T06:23:28;99363.84;;;19.63;37.48
54306;BME280;66145;45.188;5.712;2023-02-28T06:25:53;99356.53;;;19.58;37.35
54306;BME280;66145;45.188;5.712;2023-02-28T06:28:21;99328.38;;;19.35;37.15
54306;BME280;66145;45.188;5.712;2023-02-28T06:30:46;99397.13;;;19.79;37.38
54306;BME280;66145;45.188;5.712;2023-02-28T06:33:11;99388.25;;;19.73;37.18
54306;BME280;66145;45.188;5.712;2023-02-28T06:35:37;99405.00;;;19.63;38.17
54306;BME280;66145;45.188;5.712;2023-02-28T06:38:03;99378.91;;;19.43;36.75
54306;BME280;66145;45.188;5.712;2023-02-28T06:40:29;99407.59;;;19.68;36.11
54306;BME280;66145;45.188;5.712;2023-02-28T06:42:57;99396.13;;;19.66;36.12
54306;BME280;66145;45.188;5.712;2023-02-28T06:45:22;99385.94;;;19.58;35.87
54306;BME280;66145;45.188;5.712;2023-02-28T06:47:47;99409.41;;;19.73;36.21
54306;BME280;66145;45.188;5.712;2023-02-28T06:50:17;99412.44;;;19.71;36.23
54306;BME280;66145;45.188;5.712;2023-02-28T06:52:45;99412.91;;;19.65;36.35
54306;BME280;66145;45.188;5.712;2023-02-28T06:55:11;99334.72;;;19.13;36.55
54306;BME280;66145;45.188;5.712;2023-02-28T06:57:36;99395.56;;;19.47;36.43
54306;BME280;66145;45.188;5.712;2023-02-28T07:00:09;99428.88;;;19.63;36.26
54306;BME280;66145;45.188;5.712;2023-02-28T07:02:36;99394.69;;;19.37;36.64
54306;BME280;66145;45.188;5.712;2023-02-28T07:05:03;99423.03;;;19.55;36.49
54306;BME280;66145;45.188;5.712;2023-02-28T07:07:28;99424.16;;;19.54;36.16
54306;BME280;66145;45.188;5.712;2023-02-28T07:09:53;99443.03;;;19.56;36.50
54306;BME280;66145;45.188;5.712;2023-02-28T07:12:19;99438.69;;;19.55;36.51
54306;BME280;66145;45.188;5.712;2023-02-28T07:14:44;99445.13;;;19.50;36.54
54306;BME280;66145;45.188;5.712;2023-02-28T07:17:10;99451.41;;;19.51;36.44
54306;BME280;66145;45.188;5.712;2023-02-28T07:19:38;99459.69;;;19.59;36.32
54306;BME280;66145;45.188;5.712;2023-02-28T07:22:04;99433.78;;;19.43;36.31
54306;BME280;66145;45.188;5.712;2023-02-28T07:24:30;99435.53;;;19.39;36.45
54306;BME280;66145;45.188;5.712;2023-02-28T07:26:55;99459.84;;;19.54;36.39
54306;BME280;66145;45.188;5.712;2023-02-28T07:29:21;99422.31;;;19.41;36.44
54306;BME280;66145;45.188;5.712;2023-02-28T07:31:47;99459.91;;;19.40;37.01
54306;BME280;66145;45.188;5.712;2023-02-28T07:34:13;99438.63;;;19.14;37.25
54306;BME280;66145;45.188;5.712;2023-02-28T07:36:39;99446.53;;;19.16;37.28
54306;BME280;66145;45.188;5.712;2023-02-28T07:39:04;99445.53;;;19.12;36.94
54306;BME280;66145;45.188;5.712;2023-02-28T07:41:30;99424.66;;;19.02;36.89
54306;BME280;66145;45.188;5.712;2023-02-28T07:43:59;99445.41;;;19.17;36.01
54306;BME280;66145;45.188;5.712;2023-02-28T07:46:25;99451.94;;;19.30;36.36
54306;BME280;66145;45.188;5.712;2023-02-28T07:48:51;99430.13;;;19.25;36.05
54306;BME280;66145;45.188;5.712;2023-02-28T07:51:18;99440.47;;;19.28;35.37
54306;BME280;66145;45.188;5.712;2023-02-28T07:53:43;99433.03;;;19.28;35.39
54306;BME280;66145;45.188;5.712;2023-02-28T07:56:08;99415.56;;;19.15;35.79
54306;BME280;66145;45.188;5.712;2023-02-28T07:58:35;99465.06;;;19.42;35.56
54306;BME280;66145;45.188;5.712;2023-02-28T08:01:09;99444.47;;;19.22;35.76
54306;BME280;66145;45.188;5.712;2023-02-28T08:03:36;99463.28;;;19.37;35.90
54306;BME280;66145;45.188;5.712;2023-02-28T08:06:05;99463.59;;;19.36;35.95
54306;BME280;66145;45.188;5.712;2023-02-28T08:08:31;99443.28;;;19.14;36.23
54306;BME280;66145;45.188;5.712;2023-02-28T08:11:01;99435.50;;;19.07;35.78
54306;BME280;66145;45.188;5.712;2023-02-28T08:13:29;99445.66;;;19.07;36.62
54306;BME280;66145;45.188;5.712;2023-02-28T08:15:55;99459.00;;;19.22;36.22
54306;BME280;66145;45.188;5.712;2023-02-28T08:18:21;99477.97;;;19.19;35.82
54306;BME280;66145;45.188;5.712;2023-02-28T08:20:47;99448.53;;;19.02;36.41
54306;BME280;66145;45.188;5.712;2023-02-28T08:23:13;99465.53;;;19.12;36.03
54306;BME280;66145;45.188;5.712;2023-02-28T08:25:38;99476.31;;;19.09;35.75
54306;BME280;66145;45.188;5.712;2023-02-28T08:28:04;99455.22;;;18.95;36.72
54306;BME280;66145;45.188;5.712;2023-02-28T08:30:29;99483.63;;;19.13;36.00
54306;BME280;66145;45.188;5.712;2023-02-28T08:32:54;99463.84;;;19.03;35.96
54306;BME280;66145;45.188;5.712;2023-02-28T08:35:20;99485.59;;;19.22;35.50
54306;BME280;66145;45.188;5.712;2023-02-28T08:37:50;99458.03;;;19.04;35.89
54306;BME280;66145;45.188;5.712;2023-02-28T08:40:16;99460.78;;;19.04;35.89
54306;BME280;66145;45.188;5.712;2023-02-28T08:42:47;99466.94;;;19.10;35.61
54306;BME280;66145;45.188;5.712;2023-02-28T08:45:13;99482.06;;;19.21;35.66
54306;BME280;66145;45.188;5.712;2023-02-28T08:47:39;99480.25;;;19.17;35.88
54306;BME280;66145;45.188;5.712;2023-02-28T08:50:06;99473.88;;;19.07;36.47
54306;BME280;66145;45.188;5.712;2023-02-28T08:52:31;99456.34;;;18.94;36.17
54306;BME280;66145;45.188;5.712;2023-02-28T08:54:56;99489.72;;;19.10;35.81
54306;BME280;66145;45.188;5.712;2023-02-28T08:57:22;99488.41;;;19.08;36.40
54306;BME280;66145;45.188;5.712;2023-02-28T08:59:47;99478.56;;;19.07;35.10
54306;BME280;66145;45.188;5.712;2023-02-28T09:02:14;99449.97;;;18.85;35.78
54306;BME280;66145;45.188;5.712;2023-02-28T09:04:40;99485.09;;;18.97;35.39
54306;BME280;66145;45.188;5.712;2023-02-28T09:07:05;99488.34;;;18.85;36.00
54306;BME280;66145;45.188;5.712;2023-02-28T09:09:31;99496.44;;;19.04;35.72
54306;BME280;66145;45.188;5.712;2023-02-28T09:11:56;99496.13;;;18.92;36.62
54306;BME280;66145;45.188;5.712;2023-02-28T09:14:22;99471.81;;;18.76;36.18
54306;BME280;66145;45.188;5.712;2023-02-28T09:16:48;99487.34;;;18.95;35.66
54306;BME280;66145;45.188;5.712;2023-02-28T09:19:14;99455.38;;;18.76;35.88
54306;BME280;66145;45.188;5.712;2023-02-28T09:21:40;99458.81;;;18.82;35.88
54306;BME280;66145;45.188;5.712;2023-02-28T09:24:05;99467.22;;;18.85;35.99
54306;BME280;66145;45.188;5.712;2023-02-28T09:26:31;99469.97;;;18.85;35.57
54306;BME280;66145;45.188;5.712;2023-02-28T09:28:56;99471.41;;;18.83;35.81
54306;BME280;66145;45.188;5.712;2023-02-28T09:31:25;99501.03;;;18.95;36.19
54306;BME280;66145;45.188;5.712;2023-02-28T09:33:53;99498.09;;;18.91;35.61
54306;BME280;66145;45.188;5.712;2023-02-28T09:36:19;99497.69;;;18.84;35.70
54306;BME280;66145;45.188;5.712;2023-02-28T09:38:45;99503.66;;;18.86;35.74
54306;BME280;66145;45.188;5.712;2023-02-28T09:41:15;99505.41;;;18.82;36.11
54306;BME280;66145;45.188;5.712;2023-02-28T09:43:45;99493.84;;;18.71;35.67
54306;BME280;66145;45.188;5.712;2023-02-28T09:49:02;99505.22;;;18.78;35.82
54306;BME280;66145;45.188;5.712;2023-02-28T09:51:40;99505.91;;;18.84;35.90
54306;BME280;66145;45.188;5.712;2023-02-28T09:54:17;99481.91;;;18.53;35.88
54306;BME280;66145;45.188;5.712;2023-02-28T10:04:57;99495.88;;;18.79;34.66
54306;BME280;66145;45.188;5.712;2023-02-28T10:12:53;99506.41;;;18.86;35.08
54306;BME280;66145;45.188;5.712;2023-02-28T10:15:23;99513.69;;;18.91;34.92
54306;BME280;66145;45.188;5.712;2023-02-28T10:17:54;99519.00;;;18.87;35.92
54306;BME280;66145;45.188;5.712;2023-02-28T10:20:23;99521.22;;;18.85;35.02
54306;BME280;66145;45.188;5.712;2023-02-28T10:26:11;99511.31;;;18.75;34.93
54306;BME280;66145;45.188;5.712;2023-02-28T10:28:38;99520.56;;;18.65;35.65
54306;BME280;66145;45.188;5.712;2023-02-28T10:31:05;99519.25;;;18.63;35.16
54306;BME280;66145;45.188;5.712;2023-02-28T10:33:34;99502.53;;;18.50;34.91
54306;BME280;66145;45.188;5.712;2023-02-28T10:36:01;99511.44;;;18.56;35.52
54306;BME280;66145;45.188;5.712;2023-02-28T10:38:32;99480.22;;;18.29;35.06
54306;BME280;66145;45.188;5.712;2023-02-28T10:41:18;99488.84;;;18.50;35.34
54306;BME280;66145;45.188;5.712;2023-02-28T10:43:51;99499.88;;;18.59;35.64
54306;BME280;66145;45.188;5.712;2023-02-28T10:46:18;99516.59;;;18.58;35.10
54306;BME280;66145;45.188;5.712;2023-02-28T10:49:13;99490.31;;;18.57;36.13
54306;BME280;66145;45.188;5.712;2023-02-28T10:51:40;99510.34;;;18.57;36.10
54306;BME280;66145;45.188;5.712;2023-02-28T10:54:15;99526.53;;;18.81;35.57
54306;BME280;66145;45.188;5.712;2023-02-28T10:56:41;99521.84;;;18.82;35.71
54306;BME280;66145;45.188;5.712;2023-02-28T10:59:27;99526.22;;;18.83;35.96
54306;BME280;66145;45.188;5.712;2023-02-28T11:01:53;99482.44;;;18.55;36.22
54306;BME280;66145;45.188;5.712;2023-02-28T11:07:03;99490.75;;;18.64;36.18
54306;BME280;66145;45.188;5.712;2023-02-28T11:09:33;99502.38;;;18.69;36.52
54306;BME280;66145;45.188;5.712;2023-02-28T11:12:02;99486.19;;;18.59;35.97
54306;BME280;66145;45.188;5.712;2023-02-28T11:14:32;99507.44;;;18.76;35.50
54306;BME280;66145;45.188;5.712;2023-02-28T11:17:14;99489.41;;;18.61;36.57
54306;BME280;66145;45.188;5.712;2023-02-28T11:19:46;99481.41;;;18.51;35.34
54306;BME280;66145;45.188;5.712;2023-02-28T11:22:19;99501.69;;;18.64;35.96
54306;BME280;66145;45.188;5.712;2023-02-28T11:24:50;99496.81;;;18.61;36.05
54306;BME280;66145;45.188;5.712;2023-02-28T11:29:59;99493.56;;;18.59;37.01
54306;BME280;66145;45.188;5.712;2023-02-28T11:32:27;99479.88;;;18.59;35.47
54306;BME280;66145;45.188;5.712;2023-02-28T11:37:30;99481.81;;;18.58;36.31
54306;BME280;66145;45.188;5.712;2023-02-28T11:39:56;99470.97;;;18.53;35.47
54306;BME280;66145;45.188;5.712;2023-02-28T11:42:50;99441.78;;;18.34;36.33
54306;BME280;66145;45.188;5.712;2023-02-28T11:56:17;99397.78;;;18.31;36.73
54306;BME280;66145;45.188;5.712;2023-02-28T12:04:58;99455.81;;;18.69;36.07
54306;BME280;66145;45.188;5.712;2023-02-28T12:10:22;99457.03;;;18.63;35.90
54306;BME280;66145;45.188;5.712;2023-02-28T12:18:15;99448.81;;;18.63;36.67
54306;BME280;66145;45.188;5.712;2023-02-28T12:26:44;99400.53;;;18.31;36.33
54306;BME280;66145;45.188;5.712;2023-02-28T12:31:59;99444.19;;;18.50;35.53
54306;BME280;66145;45.188;5.712;2023-02-28T12:34:33;99390.69;;;18.16;36.06
54306;BME280;66145;45.188;5.712;2023-02-28T12:37:06;99417.97;;;18.35;36.24
54306;BME280;66145;45.188;5.712;2023-02-28T12:39:38;99436.28;;;18.48;36.15
54306;BME280;66145;45.188;5.712;2023-02-28T12:42:27;99395.75;;;18.22;36.47
54306;BME280;66145;45.188;5.712;2023-02-28T12:45:18;99438.91;;;18.53;37.00
54306;BME280;66145;45.188;5.712;2023-02-28T12:47:44;99419.97;;;18.43;36.86
54306;BME280;66145;45.188;5.712;2023-02-28T12:50:12;99424.81;;;18.60;36.72
54306;BME280;66145;45.188;5.712;2023-02-28T12:52:46;99371.69;;;18.33;36.93
54306;BME280;66145;45.188;5.712;2023-02-28T12:55:21;99425.16;;;18.67;37.11
54306;BME280;66145;45.188;5.712;2023-02-28T12:58:01;99410.53;;;18.72;37.26
54306;BME280;66145;45.188;5.712;2023-02-28T13:00:36;99408.13;;;18.70;37.37
54306;BME280;66145;45.188;5.712;2023-02-28T13:11:25;99363.63;;;18.51;37.67
54306;BME280;66145;45.188;5.712;2023-02-28T13:14:05;99382.44;;;18.66;37.54
54306;BME280;66145;45.188;5.712;2023-02-28T13:16:53;99385.19;;;18.66;37.65
54306;BME280;66145;45.188;5.712;2023-02-28T13:19:21;99357.38;;;18.50;37.41
54306;BME280;66145;45.188;5.712;2023-02-28T13:21:49;99302.41;;;18.10;37.91
54306;BME280;66145;45.188;5.712;2023-02-28T13:24:41;99376.09;;;18.57;37.65
54306;BME280;66145;45.188;5.712;2023-02-28T13:29:41;99380.75;;;18.57;37.66
54306;BME280;66145;45.188;5.712;2023-02-28T13:34:38;99372.53;;;18.57;37.30
54306;BME280;66145;45.188;5.712;2023-02-28T13:42:36;99387.31;;;18.69;37.18
54306;BME280;66145;45.188;5.712;2023-02-28T14:04:22;99384.56;;;18.69;36.44
54306;BME280;66145;45.188;5.712;2023-02-28T14:06:56;99379.22;;;18.64;37.20
54306;BME280;66145;45.188;5.712;2023-02-28T14:09:29;99370.81;;;18.61;37.10
54306;BME280;66145;45.188;5.712;2023-02-28T14:11:56;99379.53;;;18.63;37.18
54306;BME280;66145;45.188;5.712;2023-02-28T14:17:22;99374.16;;;18.58;37.01
54306;BME280;66145;45.188;5.712;2023-02-28T14:19:49;99363.97;;;18.49;36.91
54306;BME280;66145;45.188;5.712;2023-02-28T14:37:46;99350.25;;;18.49;36.33
54306;BME280;66145;45.188;5.712;2023-02-28T14:40:22;99352.78;;;18.46;36.70
54306;BME280;66145;45.188;5.712;2023-02-28T14:43:02;99362.00;;;18.50;36.77
54306;BME280;66145;45.188;5.712;2023-02-28T14:45:33;99382.88;;;18.60;36.98
54306;BME280;66145;45.188;5.712;2023-02-28T14:48:01;99373.38;;;18.57;36.58
54306;BME280;66145;45.188;5.712;2023-02-28T14:50:30;99372.25;;;18.58;36.49
54306;BME280;66145;45.188;5.712;2023-02-28T14:52:57;99385.63;;;18.60;36.35
54306;BME280;66145;45.188;5.712;2023-02-28T14:55:35;99371.19;;;18.31;36.95
54306;BME280;66145;45.188;5.712;2023-02-28T14:58:05;99371.25;;;18.77;36.17
54306;BME280;66145;45.188;5.712;2023-02-28T15:00:36;99381.53;;;19.17;35.97
54306;BME280;66145;45.188;5.712;2023-02-28T15:03:39;99377.91;;;19.30;35.94
54306;BME280;66145;45.188;5.712;2023-02-28T15:06:15;99364.50;;;19.28;36.20
54306;BME280;66145;45.188;5.712;2023-02-28T15:08:43;99372.59;;;19.34;36.29
54306;BME280;66145;45.188;5.712;2023-02-28T15:11:15;99364.97;;;19.30;36.44
54306;BME280;66145;45.188;5.712;2023-02-28T15:13:45;99384.31;;;19.25;36.47
54306;BME280;66145;45.188;5.712;2023-02-28T15:16:19;99389.31;;;19.23;36.37
54306;BME280;66145;45.188;5.712;2023-02-28T15:18:49;99376.19;;;19.11;36.35
54306;BME280;66145;45.188;5.712;2023-02-28T15:21:23;99378.97;;;19.20;36.49
54306;BME280;66145;45.188;5.712;2023-02-28T15:23:55;99360.69;;;19.07;36.20
54306;BME280;66145;45.188;5.712;2023-02-28T15:26:24;99355.31;;;19.02;36.43
54306;BME280;66145;45.188;5.712;2023-02-28T15:28:57;99392.19;;;19.18;36.60
54306;BME280;66145;45.188;5.712;2023-02-28T15:31:29;99361.13;;;19.00;36.45
54306;BME280;66145;45.188;5.712;2023-02-28T15:33:57;99353.81;;;18.95;36.58
54306;BME280;66145;45.188;5.712;2023-02-28T15:36:29;99378.53;;;19.27;36.37